createdAt,value
2023-03-18T06:35:35.536Z,100673.38
2023-03-18T06:38:40.387Z,100678.84
2023-03-18T06:41:44.937Z,100676.19
2023-03-18T06:44:54.845Z,100675.28
2023-03-18T06:48:20.030Z,100679.41
2023-03-18T06:51:26.984Z,100679.59
2023-03-18T06:54:29.925Z,100685.09
2023-03-18T06:57:39.144Z,100683.72
2023-03-18T07:00:47.687Z,100680.84
2023-03-18T07:04:01.057Z,100676.88
2023-03-18T07:07:05.970Z,100684.37
2023-03-18T07:10:21.047Z,100679.72
2023-03-18T07:13:25.048Z,100688.28
2023-03-18T07:16:32.672Z,100687.75
2023-03-18T07:19:35.933Z,100690.53
2023-03-18T07:22:43.000Z,100686.34
2023-03-18T07:25:46.391Z,100686.62
2023-03-18T07:28:51.976Z,100693.72
2023-03-18T07:31:55.339Z,100693.63
2023-03-18T07:35:03.020Z,100698.50
2023-03-18T07:38:05.805Z,100698.81
2023-03-18T07:41:12.687Z,100696.72
2023-03-18T07:44:36.895Z,100708.34
2023-03-18T07:47:49.022Z,100700.53
2023-03-18T07:50:52.323Z,100702.06
2023-03-18T07:54:06.994Z,100706.31
2023-03-18T07:57:10.681Z,100708.91
2023-03-18T08:00:14.577Z,100705.63
2023-03-18T08:03:34.751Z,100704.28
2023-03-18T08:06:38.043Z,100705.34
2023-03-18T08:09:41.654Z,100711.63
2023-03-18T08:12:52.557Z,100714.69
2023-03-18T08:15:57.467Z,100704.72
2023-03-18T08:19:20.281Z,100713.00
2023-03-18T08:22:52.523Z,100717.41
2023-03-18T08:26:15.648Z,100724.13
2023-03-18T08:29:24.199Z,100721.63
2023-03-18T08:32:28.057Z,100714.63
2023-03-18T08:36:11.049Z,100717.75
2023-03-18T08:39:21.099Z,100722.81
2023-03-18T08:42:24.875Z,100717.88
2023-03-18T08:45:28.717Z,100713.97
2023-03-18T08:48:54.397Z,100719.31
2023-03-18T08:52:18.368Z,100713.94
2023-03-18T08:56:03.169Z,100723.00
2023-03-18T08:59:26.592Z,100717.97
2023-03-18T09:02:49.829Z,100718.78
2023-03-18T09:05:57.629Z,100706.25
2023-03-18T09:09:01.066Z,100708.09
2023-03-18T09:12:14.158Z,100717.19
2023-03-18T09:15:37.803Z,100711.84
2023-03-18T09:19:00.688Z,100704.59
2023-03-18T09:22:07.415Z,100708.09
2023-03-18T09:25:13.684Z,100698.53
2023-03-18T09:28:16.776Z,100699.06
2023-03-18T09:31:20.733Z,100700.66
2023-03-18T09:34:25.065Z,100694.16
2023-03-18T09:37:27.872Z,100697.47
2023-03-18T09:40:36.787Z,100694.44
2023-03-18T09:43:56.171Z,100692.34
2023-03-18T09:47:10.469Z,100696.19
2023-03-18T09:50:35.283Z,100693.03
2023-03-18T09:54:28.440Z,100692.34
2023-03-18T09:57:39.380Z,100679.53
2023-03-18T10:01:12.496Z,100673.72
2023-03-18T10:04:20.809Z,100674.03
2023-03-18T10:22:14.517Z,100654.50
2023-03-18T10:25:54.724Z,100660.53
2023-03-18T10:29:40.644Z,100660.91
2023-03-18T10:33:04.117Z,100660.25
2023-03-18T10:36:13.456Z,100641.19
2023-03-18T10:39:23.483Z,100640.87
2023-03-18T10:42:32.059Z,100644.06
2023-03-18T10:45:35.518Z,100648.34
2023-03-18T10:48:57.359Z,100645.66
2023-03-18T10:52:23.839Z,100637.41
2023-03-18T10:55:32.943Z,100636.25
2023-03-18T10:58:57.533Z,100645.06
2023-03-18T11:02:11.235Z,100635.44
2023-03-18T11:05:20.562Z,100619.03
2023-03-18T11:08:47.707Z,100624.09
2023-03-18T11:11:58.234Z,100614.19
2023-03-18T11:15:00.978Z,100628.94
2023-03-18T11:18:18.433Z,100614.00
2023-03-18T11:21:24.154Z,100611.00
2023-03-18T11:24:43.958Z,100606.97
2023-03-18T11:27:52.338Z,100598.62
2023-03-18T11:30:58.533Z,100601.50
2023-03-18T11:34:08.974Z,100591.69
2023-03-18T11:37:13.069Z,100606.87
2023-03-18T11:40:25.839Z,100596.63
2023-03-18T11:43:28.920Z,100592.22
2023-03-18T11:46:38.806Z,100594.31
2023-03-18T11:49:43.988Z,100592.53
2023-03-18T11:53:05.566Z,100587.59
2023-03-18T11:56:09.434Z,100581.56
2023-03-18T11:59:35.147Z,100577.62
2023-03-18T12:03:16.765Z,100579.72
2023-03-18T12:06:22.612Z,100570.50
2023-03-18T12:09:57.069Z,100572.22
2023-03-18T12:13:31.563Z,100560.00
2023-03-18T12:16:45.541Z,100559.41
2023-03-18T12:20:09.994Z,100558.19
2023-03-18T12:23:34.409Z,100550.00
2023-03-18T12:26:51.830Z,100544.09
2023-03-18T12:30:25.234Z,100532.22
2023-03-18T12:33:45.346Z,100533.91
2023-03-18T12:37:04.251Z,100538.25
2023-03-18T12:40:35.687Z,100538.87
2023-03-18T12:44:48.891Z,100532.03
2023-03-18T12:48:18.576Z,100547.69
2023-03-18T12:51:28.356Z,100540.66
2023-03-18T12:54:45.640Z,100540.59
2023-03-18T12:57:56.601Z,100543.75
2023-03-18T13:01:31.468Z,100534.47
2023-03-18T13:04:38.857Z,100527.69
2023-03-18T13:07:50.859Z,100524.78
2023-03-18T13:11:12.311Z,100531.16
2023-03-18T13:14:57.708Z,100524.78
2023-03-18T13:18:24.646Z,100522.00
2023-03-18T13:21:31.274Z,100525.00
2023-03-18T13:25:00.236Z,100524.34
2023-03-18T13:28:50.937Z,100517.59
2023-03-18T13:32:19.143Z,100520.53
2023-03-18T13:35:50.779Z,100517.41
2023-03-18T13:39:10.199Z,100515.91
2023-03-18T13:42:59.139Z,100496.47
2023-03-18T14:28:46.472Z,100466.69
2023-03-18T14:32:34.799Z,100462.50
2023-03-18T14:35:48.502Z,100470.53
2023-03-18T14:39:03.175Z,100460.25
2023-03-18T14:42:31.604Z,100463.81
2023-03-18T14:45:44.949Z,100464.37
2023-03-18T14:48:53.812Z,100452.25
2023-03-18T14:52:38.861Z,100457.37
2023-03-18T14:55:43.859Z,100449.00
2023-03-18T14:59:26.907Z,100453.09
2023-03-18T15:02:37.689Z,100452.94
2023-03-18T15:06:03.442Z,100457.63
2023-03-18T15:09:10.104Z,100445.22
2023-03-18T15:12:19.391Z,100448.03
2023-03-18T15:15:24.001Z,100446.13
2023-03-18T15:18:38.821Z,100442.25
2023-03-18T15:21:42.729Z,100440.75
2023-03-18T15:24:47.322Z,100439.16
2023-03-18T15:27:51.162Z,100441.31
2023-03-18T15:31:00.610Z,100436.00
2023-03-18T15:34:29.256Z,100437.97
2023-03-18T15:37:42.875Z,100430.94
2023-03-18T15:41:11.364Z,100430.59
2023-03-18T15:44:19.567Z,100432.12
2023-03-18T15:47:43.855Z,100439.41
2023-03-18T15:50:56.321Z,100444.56
2023-03-18T15:54:07.124Z,100443.69
2023-03-18T15:57:23.682Z,100449.53
2023-03-18T16:00:27.622Z,100445.78
2023-03-18T16:03:34.873Z,100440.44
2023-03-18T16:06:46.726Z,100451.53
2023-03-18T16:09:54.827Z,100450.16
2023-03-18T16:13:02.414Z,100451.09
2023-03-18T16:20:46.732Z,100456.12
2023-03-18T16:59:39.021Z,100471.31
2023-03-18T17:02:42.492Z,100471.09
2023-03-18T17:05:50.322Z,100475.19
2023-03-18T17:08:54.432Z,100475.81
2023-03-18T17:12:03.137Z,100478.22
2023-03-18T17:15:09.802Z,100488.37
2023-03-18T17:18:34.390Z,100485.97
2023-03-18T17:21:38.096Z,100485.47
2023-03-18T17:25:02.439Z,100482.28
2023-03-18T17:28:26.981Z,100481.47
2023-03-18T17:31:51.641Z,100472.00
2023-03-18T17:35:18.334Z,100480.47
2023-03-18T17:38:21.813Z,100490.59
2023-03-18T17:42:06.020Z,100488.50
2023-03-18T17:45:29.641Z,100486.22
2023-03-18T17:48:38.706Z,100483.66
2023-03-18T17:51:41.939Z,100486.19
2023-03-18T17:54:45.068Z,100483.75
2023-03-18T17:57:48.429Z,100490.28
2023-03-18T18:00:54.104Z,100494.06
2023-03-18T18:04:24.976Z,100494.59
2023-03-18T18:07:28.612Z,100493.84
2023-03-18T18:10:32.009Z,100494.81
2023-03-18T18:13:35.572Z,100495.94
2023-03-18T18:16:39.488Z,100496.91
2023-03-18T18:19:44.474Z,100497.87
2023-03-18T18:22:55.980Z,100501.22
2023-03-18T18:26:01.777Z,100507.03
2023-03-18T18:29:20.596Z,100507.13
2023-03-18T18:32:26.353Z,100503.84
2023-03-18T18:35:29.677Z,100504.94
2023-03-18T18:38:32.970Z,100515.00
2023-03-18T18:41:38.800Z,100511.34
2023-03-18T18:44:43.393Z,100509.72
2023-03-18T18:47:47.368Z,100509.31
2023-03-18T18:50:50.223Z,100508.53
2023-03-18T18:53:54.306Z,100502.66
2023-03-18T18:57:28.441Z,100511.16
2023-03-18T19:00:33.468Z,100505.88
2023-03-18T19:03:36.521Z,100507.41
2023-03-18T19:06:39.805Z,100502.00
2023-03-18T19:09:43.089Z,100504.16
2023-03-18T19:12:47.720Z,100516.84
2023-03-18T19:15:54.479Z,100513.31
2023-03-18T19:18:58.366Z,100508.53
2023-03-18T19:22:01.411Z,100514.72
2023-03-18T19:25:05.184Z,100516.78
2023-03-18T19:28:14.750Z,100527.03
2023-03-18T19:31:24.716Z,100518.69
2023-03-18T19:34:35.484Z,100523.75
2023-03-18T19:37:42.302Z,100529.38
2023-03-18T19:40:48.893Z,100531.72
2023-03-18T19:43:52.855Z,100538.84
2023-03-18T19:46:59.254Z,100545.59
2023-03-18T19:50:04.246Z,100544.53
2023-03-18T19:53:15.707Z,100542.69
2023-03-18T19:56:24.535Z,100543.91
2023-03-18T19:59:37.454Z,100540.84
2023-03-18T20:02:43.864Z,100541.84
2023-03-18T20:05:49.590Z,100549.31
2023-03-18T20:08:52.860Z,100544.12
2023-03-18T20:12:07.187Z,100547.50
2023-03-18T20:15:30.028Z,100540.66
2023-03-18T20:18:56.109Z,100547.88
2023-03-18T20:21:59.147Z,100545.97
2023-03-18T20:25:05.070Z,100549.44
2023-03-18T20:28:26.522Z,100542.56
2023-03-18T20:31:30.439Z,100543.75
2023-03-18T20:34:53.126Z,100543.81
2023-03-18T20:37:58.203Z,100542.13
